sensor_id;sensor_type;location;lat;lon;timestamp;pressure;altitude;pressure_sealevel;temperature
12126;BMP180;6126;57.908;16.490;2022-12-07T00:01:17;100870.56;;;-2.68
12126;BMP180;6126;57.908;16.490;2022-12-07T00:03:45;100870.59;;;-2.67
12126;BMP180;6126;57.908;16.490;2022-12-07T00:06:14;100865.47;;;-2.65
12126;BMP180;6126;57.908;16.490;2022-12-07T00:08:40;100862.91;;;-2.65
12126;BMP180;6126;57.908;16.490;2022-12-07T00:11:19;100864.63;;;-2.66
12126;BMP180;6126;57.908;16.490;2022-12-07T00:13:50;100871.44;;;-2.66
12126;BMP180;6126;57.908;16.490;2022-12-07T00:16:20;100863.72;;;-2.68
12126;BMP180;6126;57.908;16.490;2022-12-07T00:18:46;100865.44;;;-2.68
12126;BMP180;6126;57.908;16.490;2022-12-07T00:21:15;100861.19;;;-2.69
12126;BMP180;6126;57.908;16.490;2022-12-07T00:23:44;100863.75;;;-2.69
12126;BMP180;6126;57.908;16.490;2022-12-07T00:26:26;100857.75;;;-2.70
12126;BMP180;6126;57.908;16.490;2022-12-07T00:28:56;100856.88;;;-2.72
12126;BMP180;6126;57.908;16.490;2022-12-07T00:31:26;100862.81;;;-2.74
12126;BMP180;6126;57.908;16.490;2022-12-07T00:33:53;100864.50;;;-2.77
12126;BMP180;6126;57.908;16.490;2022-12-07T00:36:22;100869.53;;;-2.82
12126;BMP180;6126;57.908;16.490;2022-12-07T00:38:49;100866.94;;;-2.83
12126;BMP180;6126;57.908;16.490;2022-12-07T00:41:18;100865.19;;;-2.89
12126;BMP180;6126;57.908;16.490;2022-12-07T00:43:46;100861.78;;;-2.91
12126;BMP180;6126;57.908;16.490;2022-12-07T00:46:13;100870.28;;;-2.92
12126;BMP180;6126;57.908;16.490;2022-12-07T00:48:39;100872.81;;;-2.92
12126;BMP180;6126;57.908;16.490;2022-12-07T00:51:06;100860.06;;;-2.89
12126;BMP180;6126;57.908;16.490;2022-12-07T00:53:34;100859.25;;;-2.88
12126;BMP180;6126;57.908;16.490;2022-12-07T00:56:30;100857.56;;;-2.87
12126;BMP180;6126;57.908;16.490;2022-12-07T00:59:00;100863.50;;;-2.87
12126;BMP180;6126;57.908;16.490;2022-12-07T01:01:34;100860.94;;;-2.88
12126;BMP180;6126;57.908;16.490;2022-12-07T01:04:01;100861.78;;;-2.89
12126;BMP180;6126;57.908;16.490;2022-12-07T01:06:27;100850.69;;;-2.90
12126;BMP180;6126;57.908;16.490;2022-12-07T01:08:54;100858.41;;;-2.87
12126;BMP180;6126;57.908;16.490;2022-12-07T01:11:24;100854.13;;;-2.86
12126;BMP180;6126;57.908;16.490;2022-12-07T01:13:52;100859.28;;;-2.85
12126;BMP180;6126;57.908;16.490;2022-12-07T01:16:19;100844.84;;;-2.83
12126;BMP180;6126;57.908;16.490;2022-12-07T01:18:52;100847.38;;;-2.83
12126;BMP180;6126;57.908;16.490;2022-12-07T01:21:22;100843.97;;;-2.82
12126;BMP180;6126;57.908;16.490;2022-12-07T01:23:49;100856.72;;;-2.83
12126;BMP180;6126;57.908;16.490;2022-12-07T01:26:20;100847.31;;;-2.87
12126;BMP180;6126;57.908;16.490;2022-12-07T01:28:46;100855.84;;;-2.87
12126;BMP180;6126;57.908;16.490;2022-12-07T01:31:17;100849.00;;;-2.91
12126;BMP180;6126;57.908;16.490;2022-12-07T01:33:50;100844.66;;;-2.95
12126;BMP180;6126;57.908;16.490;2022-12-07T01:36:32;100836.94;;;-2.99
12126;BMP180;6126;57.908;16.490;2022-12-07T01:39:03;100839.50;;;-2.99
12126;BMP180;6126;57.908;16.490;2022-12-07T01:41:33;100828.41;;;-3.01
12126;BMP180;6126;57.908;16.490;2022-12-07T01:44:25;100840.31;;;-3.03
12126;BMP180;6126;57.908;16.490;2022-12-07T01:46:59;100848.78;;;-3.06
12126;BMP180;6126;57.908;16.490;2022-12-07T01:49:36;100831.72;;;-3.07
12126;BMP180;6126;57.908;16.490;2022-12-07T01:52:26;100839.34;;;-3.11
12126;BMP180;6126;57.908;16.490;2022-12-07T01:55:00;100847.00;;;-3.12
12126;BMP180;6126;57.908;16.490;2022-12-07T01:57:27;100826.56;;;-3.11
12126;BMP180;6126;57.908;16.490;2022-12-07T01:59:55;100825.72;;;-3.10
12126;BMP180;6126;57.908;16.490;2022-12-07T02:02:36;100827.47;;;-3.09
12126;BMP180;6126;57.908;16.490;2022-12-07T02:05:05;100829.09;;;-3.12
12126;BMP180;6126;57.908;16.490;2022-12-07T02:07:36;100815.47;;;-3.13
12126;BMP180;6126;57.908;16.490;2022-12-07T02:10:25;100814.63;;;-3.12
12126;BMP180;6126;57.908;16.490;2022-12-07T02:29:24;100800.94;;;-3.15
12126;BMP180;6126;57.908;16.490;2022-12-07T02:32:04;100799.22;;;-3.19
12126;BMP180;6126;57.908;16.490;2022-12-07T02:35:11;100801.75;;;-3.21
12126;BMP180;6126;57.908;16.490;2022-12-07T02:37:46;100793.19;;;-3.23
12126;BMP180;6126;57.908;16.490;2022-12-07T02:40:39;100796.56;;;-3.25
12126;BMP180;6126;57.908;16.490;2022-12-07T02:43:23;100799.16;;;-3.22
12126;BMP180;6126;57.908;16.490;2022-12-07T02:45:54;100796.59;;;-3.22
12126;BMP180;6126;57.908;16.490;2022-12-07T02:48:22;100787.22;;;-3.23
12126;BMP180;6126;57.908;16.490;2022-12-07T02:50:53;100797.47;;;-3.20
12126;BMP180;6126;57.908;16.490;2022-12-07T02:53:40;100791.47;;;-3.22
12126;BMP180;6126;57.908;16.490;2022-12-07T02:56:25;100791.56;;;-3.19
12126;BMP180;6126;57.908;16.490;2022-12-07T03:02:33;100778.84;;;-3.13
12126;BMP180;6126;57.908;16.490;2022-12-07T03:09:11;100776.38;;;-3.05
12126;BMP180;6126;57.908;16.490;2022-12-07T03:11:48;100764.50;;;-3.01
12126;BMP180;6126;57.908;16.490;2022-12-07T03:14:21;100764.50;;;-3.00
12126;BMP180;6126;57.908;16.490;2022-12-07T03:17:01;100767.91;;;-2.99
12126;BMP180;6126;57.908;16.490;2022-12-07T03:19:32;100753.47;;;-2.99
12126;BMP180;6126;57.908;16.490;2022-12-07T03:22:10;100756.88;;;-2.97
12126;BMP180;6126;57.908;16.490;2022-12-07T03:24:47;100764.53;;;-2.97
12126;BMP180;6126;57.908;16.490;2022-12-07T03:27:23;100765.38;;;-2.98
12126;BMP180;6126;57.908;16.490;2022-12-07T03:30:00;100744.09;;;-2.98
12126;BMP180;6126;57.908;16.490;2022-12-07T03:40:53;100738.97;;;-2.98
12126;BMP180;6126;57.908;16.490;2022-12-07T03:43:21;100734.72;;;-2.98
12126;BMP180;6126;57.908;16.490;2022-12-07T03:49:23;100736.41;;;-2.97
12126;BMP180;6126;57.908;16.490;2022-12-07T03:55:32;100740.72;;;-2.91
12126;BMP180;6126;57.908;16.490;2022-12-07T03:58:06;100739.00;;;-2.94
12126;BMP180;6126;57.908;16.490;2022-12-07T04:00:33;100722.78;;;-2.99
12126;BMP180;6126;57.908;16.490;2022-12-07T04:02:59;100730.38;;;-3.02
12126;BMP180;6126;57.908;16.490;2022-12-07T04:05:25;100725.28;;;-3.03
12126;BMP180;6126;57.908;16.490;2022-12-07T04:07:51;100713.31;;;-3.04
12126;BMP180;6126;57.908;16.490;2022-12-07T04:10:18;100703.09;;;-3.06
12126;BMP180;6126;57.908;16.490;2022-12-07T04:12:44;100718.41;;;-3.07
12126;BMP180;6126;57.908;16.490;2022-12-07T04:15:10;100707.34;;;-3.08
12126;BMP180;6126;57.908;16.490;2022-12-07T04:17:36;100713.28;;;-3.08
12126;BMP180;6126;57.908;16.490;2022-12-07T04:20:04;100696.22;;;-3.09
12126;BMP180;6126;57.908;16.490;2022-12-07T04:22:30;100704.81;;;-3.06
12126;BMP180;6126;57.908;16.490;2022-12-07T04:24:56;100697.09;;;-3.08
12126;BMP180;6126;57.908;16.490;2022-12-07T04:27:22;100700.50;;;-3.10
12126;BMP180;6126;57.908;16.490;2022-12-07T04:29:48;100697.06;;;-3.12
12126;BMP180;6126;57.908;16.490;2022-12-07T04:32:14;100703.91;;;-3.09
12126;BMP180;6126;57.908;16.490;2022-12-07T04:34:39;100708.19;;;-3.07
12126;BMP180;6126;57.908;16.490;2022-12-07T04:37:05;100693.69;;;-3.07
12126;BMP180;6126;57.908;16.490;2022-12-07T04:39:32;100692.00;;;-3.08
12126;BMP180;6126;57.908;16.490;2022-12-07T04:42:00;100702.22;;;-3.08
12126;BMP180;6126;57.908;16.490;2022-12-07T04:44:27;100692.03;;;-3.05
12126;BMP180;6126;57.908;16.490;2022-12-07T04:46:54;100683.50;;;-3.05
12126;BMP180;6126;57.908;16.490;2022-12-07T04:49:21;100682.63;;;-3.07
12126;BMP180;6126;57.908;16.490;2022-12-07T04:51:47;100680.06;;;-3.08
12126;BMP180;6126;57.908;16.490;2022-12-07T04:54:15;100680.91;;;-3.09
12126;BMP180;6126;57.908;16.490;2022-12-07T04:56:43;100683.44;;;-3.09
12126;BMP180;6126;57.908;16.490;2022-12-07T04:59:15;100680.06;;;-3.08
12126;BMP180;6126;57.908;16.490;2022-12-07T05:01:41;100680.03;;;-3.11
12126;BMP180;6126;57.908;16.490;2022-12-07T05:04:08;100680.00;;;-3.14
12126;BMP180;6126;57.908;16.490;2022-12-07T05:06:34;100660.38;;;-3.17
12126;BMP180;6126;57.908;16.490;2022-12-07T05:09:03;100659.53;;;-3.19
12126;BMP180;6126;57.908;16.490;2022-12-07T05:11:28;100656.97;;;-3.19
12126;BMP180;6126;57.908;16.490;2022-12-07T05:14:17;100653.59;;;-3.16
12126;BMP180;6126;57.908;16.490;2022-12-07T05:16:46;100651.84;;;-3.17
12126;BMP180;6126;57.908;16.490;2022-12-07T05:19:12;100644.19;;;-3.17
12126;BMP180;6126;57.908;16.490;2022-12-07T05:21:39;100651.84;;;-3.17
12126;BMP180;6126;57.908;16.490;2022-12-07T05:24:06;100656.13;;;-3.16
12126;BMP180;6126;57.908;16.490;2022-12-07T05:26:33;100650.16;;;-3.17
12126;BMP180;6126;57.908;16.490;2022-12-07T05:29:00;100644.19;;;-3.17
12126;BMP180;6126;57.908;16.490;2022-12-07T05:31:26;100647.59;;;-3.17
12126;BMP180;6126;57.908;16.490;2022-12-07T05:33:53;100632.28;;;-3.15
12126;BMP180;6126;57.908;16.490;2022-12-07T05:36:19;100629.72;;;-3.15
12126;BMP180;6126;57.908;16.490;2022-12-07T05:38:45;100633.97;;;-3.14
12126;BMP180;6126;57.908;16.490;2022-12-07T05:41:16;100628.00;;;-3.18
12126;BMP180;6126;57.908;16.490;2022-12-07T05:44:01;100622.00;;;-3.20
12126;BMP180;6126;57.908;16.490;2022-12-07T05:46:26;100623.69;;;-3.23
12126;BMP180;6126;57.908;16.490;2022-12-07T05:48:52;100628.81;;;-3.23
12126;BMP180;6126;57.908;16.490;2022-12-07T05:51:19;100636.47;;;-3.23
12126;BMP180;6126;57.908;16.490;2022-12-07T05:53:45;100632.22;;;-3.24
12126;BMP180;6126;57.908;16.490;2022-12-07T05:56:11;100635.59;;;-3.25
12126;BMP180;6126;57.908;16.490;2022-12-07T05:58:37;100632.19;;;-3.27
12126;BMP180;6126;57.908;16.490;2022-12-07T06:01:22;100628.72;;;-3.31
12126;BMP180;6126;57.908;16.490;2022-12-07T06:03:48;100636.34;;;-3.34
12126;BMP180;6126;57.908;16.490;2022-12-07T06:06:13;100641.44;;;-3.37
12126;BMP180;6126;57.908;16.490;2022-12-07T06:08:39;100633.72;;;-3.41
12126;BMP180;6126;57.908;16.490;2022-12-07T06:11:05;100640.50;;;-3.43
12126;BMP180;6126;57.908;16.490;2022-12-07T06:13:57;100642.22;;;-3.45
12126;BMP180;6126;57.908;16.490;2022-12-07T06:16:23;100642.19;;;-3.48
12126;BMP180;6126;57.908;16.490;2022-12-07T06:18:49;100645.56;;;-3.49
12126;BMP180;6126;57.908;16.490;2022-12-07T06:21:14;100639.56;;;-3.52
12126;BMP180;6126;57.908;16.490;2022-12-07T06:23:40;100646.38;;;-3.53
12126;BMP180;6126;57.908;16.490;2022-12-07T06:26:06;100643.78;;;-3.56
12126;BMP180;6126;57.908;16.490;2022-12-07T06:28:32;100638.63;;;-3.59
12126;BMP180;6126;57.908;16.490;2022-12-07T06:31:00;100641.16;;;-3.62
12126;BMP180;6126;57.908;16.490;2022-12-07T06:33:27;100639.41;;;-3.64
12126;BMP180;6126;57.908;16.490;2022-12-07T06:35:53;100635.16;;;-3.65
12126;BMP180;6126;57.908;16.490;2022-12-07T06:38:19;100638.53;;;-3.68
12126;BMP180;6126;57.908;16.490;2022-12-07T06:40:45;100636.84;;;-3.68
12126;BMP180;6126;57.908;16.490;2022-12-07T06:43:11;100645.28;;;-3.72
12126;BMP180;6126;57.908;16.490;2022-12-07T06:45:37;100650.34;;;-3.75
12126;BMP180;6126;57.908;16.490;2022-12-07T06:48:03;100649.50;;;-3.76
12126;BMP180;6126;57.908;16.490;2022-12-07T06:50:29;100644.38;;;-3.79
12126;BMP180;6126;57.908;16.490;2022-12-07T06:52:55;100657.94;;;-3.80
12126;BMP180;6126;57.908;16.490;2022-12-07T06:55:21;100657.13;;;-3.79
12126;BMP180;6126;57.908;16.490;2022-12-07T06:57:47;100646.91;;;-3.77
12126;BMP180;6126;57.908;16.490;2022-12-07T07:00:13;100656.28;;;-3.78
12126;BMP180;6126;57.908;16.490;2022-12-07T07:02:39;100659.72;;;-3.74
12126;BMP180;6126;57.908;16.490;2022-12-07T07:05:05;100650.38;;;-3.74
12126;BMP180;6126;57.908;16.490;2022-12-07T07:07:31;100654.63;;;-3.71
12126;BMP180;6126;57.908;16.490;2022-12-07T07:09:57;100647.00;;;-3.70
12126;BMP180;6126;57.908;16.490;2022-12-07T07:12:23;100655.56;;;-3.68
12126;BMP180;6126;57.908;16.490;2022-12-07T07:14:49;100653.00;;;-3.68
12126;BMP180;6126;57.908;16.490;2022-12-07T07:17:15;100648.75;;;-3.68
12126;BMP180;6126;57.908;16.490;2022-12-07T07:19:41;100646.22;;;-3.66
12126;BMP180;6126;57.908;16.490;2022-12-07T07:22:06;100649.63;;;-3.66
12126;BMP180;6126;57.908;16.490;2022-12-07T07:24:32;100658.09;;;-3.67
12126;BMP180;6126;57.908;16.490;2022-12-07T07:26:58;100656.44;;;-3.66
12126;BMP180;6126;57.908;16.490;2022-12-07T07:29:24;100660.69;;;-3.65
12126;BMP180;6126;57.908;16.490;2022-12-07T07:31:50;100656.44;;;-3.65
12126;BMP180;6126;57.908;16.490;2022-12-07T07:34:15;100653.88;;;-3.65
12126;BMP180;6126;57.908;16.490;2022-12-07T07:36:41;100652.22;;;-3.63
12126;BMP180;6126;57.908;16.490;2022-12-07T07:39:07;100649.72;;;-3.57
12126;BMP180;6126;57.908;16.490;2022-12-07T07:41:33;100642.91;;;-3.58
12126;BMP180;6126;57.908;16.490;2022-12-07T07:43:59;100642.88;;;-3.59
12126;BMP180;6126;57.908;16.490;2022-12-07T07:46:24;100639.53;;;-3.55
12126;BMP180;6126;57.908;16.490;2022-12-07T07:48:50;100643.81;;;-3.53
12126;BMP180;6126;57.908;16.490;2022-12-07T07:51:16;100629.34;;;-3.52
12126;BMP180;6126;57.908;16.490;2022-12-07T07:53:42;100642.13;;;-3.51
12126;BMP180;6126;57.908;16.490;2022-12-07T07:56:08;100637.06;;;-3.48
12126;BMP180;6126;57.908;16.490;2022-12-07T07:58:33;100647.31;;;-3.45
12126;BMP180;6126;57.908;16.490;2022-12-07T08:01:07;100643.09;;;-3.41
12126;BMP180;6126;57.908;16.490;2022-12-07T08:03:33;100638.81;;;-3.41
12126;BMP180;6126;57.908;16.490;2022-12-07T08:05:59;100642.25;;;-3.39
12126;BMP180;6126;57.908;16.490;2022-12-07T08:08:25;100644.84;;;-3.38
12126;BMP180;6126;57.908;16.490;2022-12-07T08:10:51;100640.63;;;-3.34
12126;BMP180;6126;57.908;16.490;2022-12-07T08:13:16;100642.31;;;-3.33
12126;BMP180;6126;57.908;16.490;2022-12-07T08:15:46;100633.84;;;-3.32
12126;BMP180;6126;57.908;16.490;2022-12-07T08:18:13;100627.84;;;-3.33
12126;BMP180;6126;57.908;16.490;2022-12-07T08:20:41;100639.75;;;-3.33
12126;BMP180;6126;57.908;16.490;2022-12-07T08:23:08;100634.69;;;-3.32
12126;BMP180;6126;57.908;16.490;2022-12-07T08:25:34;100637.22;;;-3.33
12126;BMP180;6126;57.908;16.490;2022-12-07T08:28:01;100634.69;;;-3.30
12126;BMP180;6126;57.908;16.490;2022-12-07T08:30:29;100635.56;;;-3.28
12126;BMP180;6126;57.908;16.490;2022-12-07T08:32:56;100623.63;;;-3.28
12126;BMP180;6126;57.908;16.490;2022-12-07T08:35:22;100627.06;;;-3.27
12126;BMP180;6126;57.908;16.490;2022-12-07T08:37:48;100625.34;;;-3.28
12126;BMP180;6126;57.908;16.490;2022-12-07T08:40:14;100624.50;;;-3.26
12126;BMP180;6126;57.908;16.490;2022-12-07T08:42:42;100628.81;;;-3.23
12126;BMP180;6126;57.908;16.490;2022-12-07T08:45:12;100620.28;;;-3.22
12126;BMP180;6126;57.908;16.490;2022-12-07T08:47:45;100622.91;;;-3.19
12126;BMP180;6126;57.908;16.490;2022-12-07T08:50:12;100616.94;;;-3.18
12126;BMP180;6126;57.908;16.490;2022-12-07T08:52:40;100620.38;;;-3.16
12126;BMP180;6126;57.908;16.490;2022-12-07T08:55:12;100611.84;;;-3.15
12126;BMP180;6126;57.908;16.490;2022-12-07T08:57:39;100611.91;;;-3.11
12126;BMP180;6126;57.908;16.490;2022-12-07T09:00:06;100622.97;;;-3.10
12126;BMP180;6126;57.908;16.490;2022-12-07T09:02:33;100616.19;;;-3.06
12126;BMP180;6126;57.908;16.490;2022-12-07T09:04:59;100603.44;;;-3.03
12126;BMP180;6126;57.908;16.490;2022-12-07T09:07:25;100617.09;;;-3.01
12126;BMP180;6126;57.908;16.490;2022-12-07T09:09:51;100602.63;;;-3.00
12126;BMP180;6126;57.908;16.490;2022-12-07T09:12:17;100612.00;;;-2.98
12126;BMP180;6126;57.908;16.490;2022-12-07T09:14:43;100614.56;;;-2.96
12126;BMP180;6126;57.908;16.490;2022-12-07T09:17:12;100609.47;;;-2.95
12126;BMP180;6126;57.908;16.490;2022-12-07T09:19:38;100601.84;;;-2.93
12126;BMP180;6126;57.908;16.490;2022-12-07T09:22:05;100616.28;;;-2.94
12126;BMP180;6126;57.908;16.490;2022-12-07T09:24:31;100617.16;;;-2.92
12126;BMP180;6126;57.908;16.490;2022-12-07T09:26:58;100605.22;;;-2.91
12126;BMP180;6126;57.908;16.490;2022-12-07T09:29:24;100612.06;;;-2.93
12126;BMP180;6126;57.908;16.490;2022-12-07T09:31:52;100604.38;;;-2.93
12126;BMP180;6126;57.908;16.490;2022-12-07T09:34:18;100615.47;;;-2.91
12126;BMP180;6126;57.908;16.490;2022-12-07T09:36:44;100603.56;;;-2.91
12126;BMP180;6126;57.908;16.490;2022-12-07T09:39:10;100593.34;;;-2.91
12126;BMP180;6126;57.908;16.490;2022-12-07T09:41:42;100595.00;;;-2.93
12126;BMP180;6126;57.908;16.490;2022-12-07T09:44:23;100586.47;;;-2.92
12126;BMP180;6126;57.908;16.490;2022-12-07T09:46:50;100576.28;;;-2.89
12126;BMP180;6126;57.908;16.490;2022-12-07T09:49:24;100575.44;;;-2.88
12126;BMP180;6126;57.908;16.490;2022-12-07T09:54:29;100574.56;;;-2.93
12126;BMP180;6126;57.908;16.490;2022-12-07T09:56:56;100573.72;;;-2.93
12126;BMP180;6126;57.908;16.490;2022-12-07T09:59:22;100571.97;;;-2.94
12126;BMP180;6126;57.908;16.490;2022-12-07T10:01:49;100568.59;;;-2.93
12126;BMP180;6126;57.908;16.490;2022-12-07T10:04:22;100563.47;;;-2.93
12126;BMP180;6126;57.908;16.490;2022-12-07T10:06:49;100564.34;;;-2.90
12126;BMP180;6126;57.908;16.490;2022-12-07T10:09:20;100564.34;;;-2.88
12126;BMP180;6126;57.908;16.490;2022-12-07T10:12:08;100566.94;;;-2.84
12126;BMP180;6126;57.908;16.490;2022-12-07T10:14:38;100565.25;;;-2.82
12126;BMP180;6126;57.908;16.490;2022-12-07T10:17:35;100567.84;;;-2.79
12126;BMP180;6126;57.908;16.490;2022-12-07T10:25:30;100557.63;;;-2.77
12126;BMP180;6126;57.908;16.490;2022-12-07T10:28:18;100550.84;;;-2.71
12126;BMP180;6126;57.908;16.490;2022-12-07T10:31:02;100554.28;;;-2.66
12126;BMP180;6126;57.908;16.490;2022-12-07T10:33:47;100541.53;;;-2.65
12126;BMP180;6126;57.908;16.490;2022-12-07T10:36:33;100553.47;;;-2.62
12126;BMP180;6126;57.908;16.490;2022-12-07T10:39:15;100540.69;;;-2.59
12126;BMP180;6126;57.908;16.490;2022-12-07T10:42:03;100547.53;;;-2.57
12126;BMP180;6126;57.908;16.490;2022-12-07T10:44:32;100527.97;;;-2.52
12126;BMP180;6126;57.908;16.490;2022-12-07T10:50:14;100528.81;;;-2.50
12126;BMP180;6126;57.908;16.490;2022-12-07T10:55:32;100528.81;;;-2.48
12126;BMP180;6126;57.908;16.490;2022-12-07T11:04:03;100523.72;;;-2.43
12126;BMP180;6126;57.908;16.490;2022-12-07T11:15:01;100523.75;;;-2.38
12126;BMP180;6126;57.908;16.490;2022-12-07T11:17:32;100513.53;;;-2.35
12126;BMP180;6126;57.908;16.490;2022-12-07T11:20:49;100511.00;;;-2.34
12126;BMP180;6126;57.908;16.490;2022-12-07T11:35:07;100514.44;;;-2.21
12126;BMP180;6126;57.908;16.490;2022-12-07T11:37:37;100505.94;;;-2.20
12126;BMP180;6126;57.908;16.490;2022-12-07T11:40:27;100503.38;;;-2.19
12126;BMP180;6126;57.908;16.490;2022-12-07T11:43:16;100500.78;;;-2.22
12126;BMP180;6126;57.908;16.490;2022-12-07T11:45:52;100494.81;;;-2.22
12126;BMP180;6126;57.908;16.490;2022-12-07T11:48:32;100501.66;;;-2.20
12126;BMP180;6126;57.908;16.490;2022-12-07T11:51:02;100488.91;;;-2.15
12126;BMP180;6126;57.908;16.490;2022-12-07T11:53:44;100505.09;;;-2.15
12126;BMP180;6126;57.908;16.490;2022-12-07T11:56:22;100489.72;;;-2.14
12126;BMP180;6126;57.908;16.490;2022-12-07T12:01:47;100494.03;;;-2.10
12126;BMP180;6126;57.908;16.490;2022-12-07T12:07:19;100481.22;;;-2.11
12126;BMP180;6126;57.908;16.490;2022-12-07T12:09:58;100482.06;;;-2.09
12126;BMP180;6126;57.908;16.490;2022-12-07T12:12:42;100477.81;;;-2.10
12126;BMP180;6126;57.908;16.490;2022-12-07T12:21:28;100470.97;;;-2.13
12126;BMP180;6126;57.908;16.490;2022-12-07T12:24:14;100461.56;;;-2.11
12126;BMP180;6126;57.908;16.490;2022-12-07T12:27:04;100472.69;;;-2.10
12126;BMP180;6126;57.908;16.490;2022-12-07T12:29:40;100463.31;;;-2.10
12126;BMP180;6126;57.908;16.490;2022-12-07T12:32:23;100463.28;;;-2.11
12126;BMP180;6126;57.908;16.490;2022-12-07T12:37:41;100453.91;;;-2.09
12126;BMP180;6126;57.908;16.490;2022-12-07T12:42:50;100464.16;;;-2.06
12126;BMP180;6126;57.908;16.490;2022-12-07T12:45:27;100457.34;;;-2.07
12126;BMP180;6126;57.908;16.490;2022-12-07T12:48:29;100465.84;;;-2.08
12126;BMP180;6126;57.908;16.490;2022-12-07T12:51:44;100453.06;;;-2.07
12126;BMP180;6126;57.908;16.490;2022-12-07T12:57:06;100450.50;;;-2.05
12126;BMP180;6126;57.908;16.490;2022-12-07T12:59:39;100449.66;;;-2.04
12126;BMP180;6126;57.908;16.490;2022-12-07T13:02:47;100438.56;;;-2.03
12126;BMP180;6126;57.908;16.490;2022-12-07T13:15:46;100441.97;;;-2.07
12126;BMP180;6126;57.908;16.490;2022-12-07T13:29:14;100440.25;;;-2.20
12126;BMP180;6126;57.908;16.490;2022-12-07T13:31:49;100440.25;;;-2.20
12126;BMP180;6126;57.908;16.490;2022-12-07T13:34:41;100424.00;;;-2.23
12126;BMP180;6126;57.908;16.490;2022-12-07T13:40:17;100432.53;;;-2.27
12126;BMP180;6126;57.908;16.490;2022-12-07T13:42:44;100433.38;;;-2.30
12126;BMP180;6126;57.908;16.490;2022-12-07T13:45:30;100427.41;;;-2.36
12126;BMP180;6126;57.908;16.490;2022-12-07T13:48:44;100423.94;;;-2.43
12126;BMP180;6126;57.908;16.490;2022-12-07T13:51:20;100436.75;;;-2.43
12126;BMP180;6126;57.908;16.490;2022-12-07T13:54:11;100438.44;;;-2.42
12126;BMP180;6126;57.908;16.490;2022-12-07T13:56:38;100430.75;;;-2.42
12126;BMP180;6126;57.908;16.490;2022-12-07T13:59:20;100431.63;;;-2.44
12126;BMP180;6126;57.908;16.490;2022-12-07T14:01:48;100427.38;;;-2.46
12126;BMP180;6126;57.908;16.490;2022-12-07T14:04:36;100428.19;;;-2.50
12126;BMP180;6126;57.908;16.490;2022-12-07T14:07:23;100416.25;;;-2.53
12126;BMP180;6126;57.908;16.490;2022-12-07T14:10:04;100419.63;;;-2.55
12126;BMP180;6126;57.908;16.490;2022-12-07T14:12:32;100432.41;;;-2.60
12126;BMP180;6126;57.908;16.490;2022-12-07T14:15:02;100427.28;;;-2.61
12126;BMP180;6126;57.908;16.490;2022-12-07T14:17:29;100421.31;;;-2.60
12126;BMP180;6126;57.908;16.490;2022-12-07T14:19:57;100424.72;;;-2.63
12126;BMP180;6126;57.908;16.490;2022-12-07T14:25:17;100405.97;;;-2.66
12126;BMP180;6126;57.908;16.490;2022-12-07T14:27:58;100406.81;;;-2.67
12126;BMP180;6126;57.908;16.490;2022-12-07T14:30:28;100411.06;;;-2.68
12126;BMP180;6126;57.908;16.490;2022-12-07T14:33:02;100410.22;;;-2.68
12126;BMP180;6126;57.908;16.490;2022-12-07T14:35:29;100409.34;;;-2.70
12126;BMP180;6126;57.908;16.490;2022-12-07T14:37:55;100414.44;;;-2.70
12126;BMP180;6126;57.908;16.490;2022-12-07T14:40:27;100401.69;;;-2.72
12126;BMP180;6126;57.908;16.490;2022-12-07T14:43:01;100405.94;;;-2.72
12126;BMP180;6126;57.908;16.490;2022-12-07T14:45:28;100395.72;;;-2.75
12126;BMP180;6126;57.908;16.490;2022-12-07T14:47:54;100400.78;;;-2.78
12126;BMP180;6126;57.908;16.490;2022-12-07T14:50:21;100398.22;;;-2.79
12126;BMP180;6126;57.908;16.490;2022-12-07T14:52:55;100397.38;;;-2.83
12126;BMP180;6126;57.908;16.490;2022-12-07T14:55:29;100401.59;;;-2.83
12126;BMP180;6126;57.908;16.490;2022-12-07T14:57:57;100393.09;;;-2.87
12126;BMP180;6126;57.908;16.490;2022-12-07T15:00:26;100394.75;;;-2.89
12126;BMP180;6126;57.908;16.490;2022-12-07T15:02:54;100389.66;;;-2.90
12126;BMP180;6126;57.908;16.490;2022-12-07T15:05:20;100383.69;;;-2.91
12126;BMP180;6126;57.908;16.490;2022-12-07T15:07:47;100386.25;;;-2.92
12126;BMP180;6126;57.908;16.490;2022-12-07T15:10:22;100392.19;;;-2.92
12126;BMP180;6126;57.908;16.490;2022-12-07T15:12:48;100379.41;;;-2.95
12126;BMP180;6126;57.908;16.490;2022-12-07T15:15:14;100383.66;;;-2.97
12126;BMP180;6126;57.908;16.490;2022-12-07T15:17:40;100388.75;;;-2.97
12126;BMP180;6126;57.908;16.490;2022-12-07T15:20:15;100376.84;;;-2.98
12126;BMP180;6126;57.908;16.490;2022-12-07T15:22:42;100376.84;;;-2.98
12126;BMP180;6126;57.908;16.490;2022-12-07T15:25:13;100383.63;;;-3.00
12126;BMP180;6126;57.908;16.490;2022-12-07T15:27:39;100376.84;;;-3.01
12126;BMP180;6126;57.908;16.490;2022-12-07T15:30:05;100380.22;;;-3.02
12126;BMP180;6126;57.908;16.490;2022-12-07T15:32:31;100370.88;;;-3.01
12126;BMP180;6126;57.908;16.490;2022-12-07T15:34:57;100375.09;;;-3.02
12126;BMP180;6126;57.908;16.490;2022-12-07T15:37:23;100380.22;;;-3.03
12126;BMP180;6126;57.908;16.490;2022-12-07T15:39:49;100373.41;;;-3.06
12126;BMP180;6126;57.908;16.490;2022-12-07T15:42:14;100374.22;;;-3.07
12126;BMP180;6126;57.908;16.490;2022-12-07T15:44:41;100379.34;;;-3.08
12126;BMP180;6126;57.908;16.490;2022-12-07T15:47:26;100364.84;;;-3.10
12126;BMP180;6126;57.908;16.490;2022-12-07T15:49:52;100363.16;;;-3.11
12126;BMP180;6126;57.908;16.490;2022-12-07T15:52:18;100372.50;;;-3.13
12126;BMP180;6126;57.908;16.490;2022-12-07T15:54:44;100369.94;;;-3.13
12126;BMP180;6126;57.908;16.490;2022-12-07T15:57:10;100368.22;;;-3.14
12126;BMP180;6126;57.908;16.490;2022-12-07T15:59:36;100368.22;;;-3.16
12126;BMP180;6126;57.908;16.490;2022-12-07T16:02:02;100376.72;;;-3.17
12126;BMP180;6126;57.908;16.490;2022-12-07T16:04:29;100361.38;;;-3.17
12126;BMP180;6126;57.908;16.490;2022-12-07T16:06:55;100364.81;;;-3.16
12126;BMP180;6126;57.908;16.490;2022-12-07T16:09:22;100378.44;;;-3.16
12126;BMP180;6126;57.908;16.490;2022-12-07T16:11:47;100379.28;;;-3.17
12126;BMP180;6126;57.908;16.490;2022-12-07T16:14:15;100378.44;;;-3.17
12126;BMP180;6126;57.908;16.490;2022-12-07T16:16:41;100380.16;;;-3.19
12126;BMP180;6126;57.908;16.490;2022-12-07T16:19:08;100377.53;;;-3.25
12126;BMP180;6126;57.908;16.490;2022-12-07T16:21:35;100368.16;;;-3.26
12126;BMP180;6126;57.908;16.490;2022-12-07T16:24:01;100366.47;;;-3.27
12126;BMP180;6126;57.908;16.490;2022-12-07T16:26:27;100360.50;;;-3.26